sensor_id;sensor_type;location;lat;lon;timestamp;temperature;humidity
2363;DHT22;64265;51.664;7.626;2023-05-10T00:00:38;22.20;89.60
2363;DHT22;64265;51.664;7.626;2023-05-10T00:03:05;22.20;89.60
2363;DHT22;64265;51.664;7.626;2023-05-10T00:05:32;22.20;89.60
2363;DHT22;64265;51.664;7.626;2023-05-10T00:07:59;22.20;89.60
2363;DHT22;64265;51.664;7.626;2023-05-10T00:10:25;22.20;89.60
2363;DHT22;64265;51.664;7.626;2023-05-10T00:12:52;22.20;89.60
2363;DHT22;64265;51.664;7.626;2023-05-10T00:15:19;22.20;89.50
2363;DHT22;64265;51.664;7.626;2023-05-10T00:17:47;22.20;89.50
2363;DHT22;64265;51.664;7.626;2023-05-10T00:20:13;22.20;89.60
2363;DHT22;64265;51.664;7.626;2023-05-10T00:22:40;22.20;89.50
2363;DHT22;64265;51.664;7.626;2023-05-10T00:25:08;22.20;89.50
2363;DHT22;64265;51.664;7.626;2023-05-10T00:27:35;22.10;89.40
2363;DHT22;64265;51.664;7.626;2023-05-10T00:30:02;22.20;89.50
2363;DHT22;64265;51.664;7.626;2023-05-10T00:32:29;22.20;89.50
2363;DHT22;64265;51.664;7.626;2023-05-10T00:34:57;22.20;89.50
2363;DHT22;64265;51.664;7.626;2023-05-10T00:37:23;22.10;89.30
2363;DHT22;64265;51.664;7.626;2023-05-10T00:39:50;22.10;89.40
2363;DHT22;64265;51.664;7.626;2023-05-10T00:42:17;22.10;89.30
2363;DHT22;64265;51.664;7.626;2023-05-10T00:44:43;22.10;89.30
2363;DHT22;64265;51.664;7.626;2023-05-10T00:47:12;22.10;89.30
2363;DHT22;64265;51.664;7.626;2023-05-10T00:49:38;22.10;89.30
2363;DHT22;64265;51.664;7.626;2023-05-10T00:52:07;22.10;89.30
2363;DHT22;64265;51.664;7.626;2023-05-10T00:54:34;22.10;89.30
2363;DHT22;64265;51.664;7.626;2023-05-10T00:57:01;22.10;89.30
2363;DHT22;64265;51.664;7.626;2023-05-10T00:59:29;22.10;89.30
2363;DHT22;64265;51.664;7.626;2023-05-10T01:01:56;22.00;89.20
2363;DHT22;64265;51.664;7.626;2023-05-10T01:04:23;22.10;89.30
2363;DHT22;64265;51.664;7.626;2023-05-10T01:06:54;22.10;89.30
2363;DHT22;64265;51.664;7.626;2023-05-10T01:09:22;22.10;89.30
2363;DHT22;64265;51.664;7.626;2023-05-10T01:11:50;22.00;89.20
2363;DHT22;64265;51.664;7.626;2023-05-10T01:14:18;22.00;89.20
2363;DHT22;64265;51.664;7.626;2023-05-10T01:16:47;22.00;89.20
2363;DHT22;64265;51.664;7.626;2023-05-10T01:19:19;22.00;89.30
2363;DHT22;64265;51.664;7.626;2023-05-10T01:21:51;22.00;89.20
2363;DHT22;64265;51.664;7.626;2023-05-10T01:24:46;22.00;89.20
2363;DHT22;64265;51.664;7.626;2023-05-10T01:27:33;22.00;89.30
2363;DHT22;64265;51.664;7.626;2023-05-10T01:30:33;22.00;89.20
2363;DHT22;64265;51.664;7.626;2023-05-10T01:33:10;22.00;89.30
2363;DHT22;64265;51.664;7.626;2023-05-10T01:35:40;22.00;89.20
2363;DHT22;64265;51.664;7.626;2023-05-10T01:38:16;22.00;89.20
2363;DHT22;64265;51.664;7.626;2023-05-10T01:40:52;22.00;89.20
2363;DHT22;64265;51.664;7.626;2023-05-10T01:43:23;22.00;89.20
2363;DHT22;64265;51.664;7.626;2023-05-10T01:45:59;21.90;89.10
2363;DHT22;64265;51.664;7.626;2023-05-10T01:48:32;22.00;89.30
2363;DHT22;64265;51.664;7.626;2023-05-10T01:50:59;22.00;89.20
2363;DHT22;64265;51.664;7.626;2023-05-10T01:53:26;22.00;89.30
2363;DHT22;64265;51.664;7.626;2023-05-10T01:55:55;22.00;89.20
2363;DHT22;64265;51.664;7.626;2023-05-10T01:58:26;22.00;89.20
2363;DHT22;64265;51.664;7.626;2023-05-10T02:00:54;21.90;89.10
2363;DHT22;64265;51.664;7.626;2023-05-10T02:03:23;21.90;89.10
2363;DHT22;64265;51.664;7.626;2023-05-10T02:05:52;21.90;89.00
2363;DHT22;64265;51.664;7.626;2023-05-10T02:08:21;21.90;89.10
2363;DHT22;64265;51.664;7.626;2023-05-10T02:10:50;21.90;89.20
2363;DHT22;64265;51.664;7.626;2023-05-10T02:13:18;21.90;89.10
2363;DHT22;64265;51.664;7.626;2023-05-10T02:15:48;21.90;89.00
2363;DHT22;64265;51.664;7.626;2023-05-10T02:18:15;21.90;89.10
2363;DHT22;64265;51.664;7.626;2023-05-10T02:20:43;21.90;89.00
2363;DHT22;64265;51.664;7.626;2023-05-10T02:23:13;21.90;89.00
2363;DHT22;64265;51.664;7.626;2023-05-10T02:25:42;21.90;89.00
2363;DHT22;64265;51.664;7.626;2023-05-10T02:28:11;21.90;89.10
2363;DHT22;64265;51.664;7.626;2023-05-10T02:30:39;21.80;88.90
2363;DHT22;64265;51.664;7.626;2023-05-10T02:33:06;21.90;89.10
2363;DHT22;64265;51.664;7.626;2023-05-10T02:35:34;21.90;89.10
2363;DHT22;64265;51.664;7.626;2023-05-10T02:38:01;21.80;89.00
2363;DHT22;64265;51.664;7.626;2023-05-10T02:40:30;21.80;89.00
2363;DHT22;64265;51.664;7.626;2023-05-10T02:42:59;21.80;89.00
2363;DHT22;64265;51.664;7.626;2023-05-10T02:45:30;21.80;89.00
2363;DHT22;64265;51.664;7.626;2023-05-10T02:47:58;21.80;89.00
2363;DHT22;64265;51.664;7.626;2023-05-10T02:50:27;21.80;89.00
2363;DHT22;64265;51.664;7.626;2023-05-10T02:52:56;21.80;88.90
2363;DHT22;64265;51.664;7.626;2023-05-10T02:55:29;21.80;89.00
2363;DHT22;64265;51.664;7.626;2023-05-10T02:58:00;21.80;88.90
2363;DHT22;64265;51.664;7.626;2023-05-10T03:00:27;21.80;88.90
2363;DHT22;64265;51.664;7.626;2023-05-10T03:02:54;21.80;89.00
2363;DHT22;64265;51.664;7.626;2023-05-10T03:05:21;21.80;88.90
2363;DHT22;64265;51.664;7.626;2023-05-10T03:07:48;21.80;88.90
2363;DHT22;64265;51.664;7.626;2023-05-10T03:10:16;21.80;89.00
2363;DHT22;64265;51.664;7.626;2023-05-10T03:12:56;21.70;88.90
2363;DHT22;64265;51.664;7.626;2023-05-10T03:15:36;21.80;89.00
2363;DHT22;64265;51.664;7.626;2023-05-10T03:18:07;21.80;89.00
2363;DHT22;64265;51.664;7.626;2023-05-10T03:20:36;21.80;89.00
2363;DHT22;64265;51.664;7.626;2023-05-10T03:23:07;21.70;88.90
2363;DHT22;64265;51.664;7.626;2023-05-10T03:25:35;21.70;89.70
2363;DHT22;64265;51.664;7.626;2023-05-10T03:28:02;21.70;89.00
2363;DHT22;64265;51.664;7.626;2023-05-10T03:30:32;21.70;88.90
2363;DHT22;64265;51.664;7.626;2023-05-10T03:33:04;21.70;88.90
2363;DHT22;64265;51.664;7.626;2023-05-10T03:35:31;21.70;89.00
2363;DHT22;64265;51.664;7.626;2023-05-10T03:37:58;21.70;88.90
2363;DHT22;64265;51.664;7.626;2023-05-10T03:40:26;21.70;89.00
2363;DHT22;64265;51.664;7.626;2023-05-10T03:42:54;21.70;89.00
2363;DHT22;64265;51.664;7.626;2023-05-10T03:45:21;21.70;89.00
2363;DHT22;64265;51.664;7.626;2023-05-10T03:47:49;21.70;89.00
2363;DHT22;64265;51.664;7.626;2023-05-10T03:50:15;21.70;89.00
2363;DHT22;64265;51.664;7.626;2023-05-10T03:52:42;21.70;89.00
2363;DHT22;64265;51.664;7.626;2023-05-10T03:55:09;21.70;89.00
2363;DHT22;64265;51.664;7.626;2023-05-10T03:57:36;21.70;88.90
2363;DHT22;64265;51.664;7.626;2023-05-10T04:00:03;21.70;89.00
2363;DHT22;64265;51.664;7.626;2023-05-10T04:02:30;21.70;89.00
2363;DHT22;64265;51.664;7.626;2023-05-10T04:04:58;21.70;88.90
2363;DHT22;64265;51.664;7.626;2023-05-10T04:07:25;21.70;88.90
2363;DHT22;64265;51.664;7.626;2023-05-10T04:09:52;21.60;88.80
2363;DHT22;64265;51.664;7.626;2023-05-10T04:12:19;21.60;88.80
2363;DHT22;64265;51.664;7.626;2023-05-10T04:14:45;21.60;88.80
2363;DHT22;64265;51.664;7.626;2023-05-10T04:17:12;21.60;88.80
2363;DHT22;64265;51.664;7.626;2023-05-10T04:19:39;21.60;88.80
2363;DHT22;64265;51.664;7.626;2023-05-10T04:22:07;21.60;88.80
2363;DHT22;64265;51.664;7.626;2023-05-10T04:24:33;21.60;88.90
2363;DHT22;64265;51.664;7.626;2023-05-10T04:27:00;21.60;88.90
2363;DHT22;64265;51.664;7.626;2023-05-10T04:29:27;21.60;88.80
2363;DHT22;64265;51.664;7.626;2023-05-10T04:31:54;21.60;88.80
2363;DHT22;64265;51.664;7.626;2023-05-10T04:34:22;21.60;88.70
2363;DHT22;64265;51.664;7.626;2023-05-10T04:36:48;21.60;88.80
2363;DHT22;64265;51.664;7.626;2023-05-10T04:39:16;21.60;88.80
2363;DHT22;64265;51.664;7.626;2023-05-10T04:41:45;21.60;88.80
2363;DHT22;64265;51.664;7.626;2023-05-10T04:44:11;21.60;88.90
2363;DHT22;64265;51.664;7.626;2023-05-10T04:46:38;21.60;89.20
2363;DHT22;64265;51.664;7.626;2023-05-10T04:49:05;21.60;89.40
2363;DHT22;64265;51.664;7.626;2023-05-10T04:51:31;21.60;89.50
2363;DHT22;64265;51.664;7.626;2023-05-10T04:53:58;21.50;89.40
2363;DHT22;64265;51.664;7.626;2023-05-10T04:56:27;21.60;89.40
2363;DHT22;64265;51.664;7.626;2023-05-10T04:58:53;21.50;89.40
2363;DHT22;64265;51.664;7.626;2023-05-10T05:01:20;21.50;89.40
2363;DHT22;64265;51.664;7.626;2023-05-10T05:03:48;21.50;89.40
2363;DHT22;64265;51.664;7.626;2023-05-10T05:06:15;21.50;89.40
2363;DHT22;64265;51.664;7.626;2023-05-10T05:08:44;21.50;90.00
2363;DHT22;64265;51.664;7.626;2023-05-10T05:11:10;21.50;89.30
2363;DHT22;64265;51.664;7.626;2023-05-10T05:13:39;21.50;89.30
2363;DHT22;64265;51.664;7.626;2023-05-10T05:16:06;21.50;89.20
2363;DHT22;64265;51.664;7.626;2023-05-10T05:18:32;21.50;89.30
2363;DHT22;64265;51.664;7.626;2023-05-10T05:20:59;21.50;89.20
2363;DHT22;64265;51.664;7.626;2023-05-10T05:23:26;21.50;89.20
2363;DHT22;64265;51.664;7.626;2023-05-10T05:25:53;21.50;89.20
2363;DHT22;64265;51.664;7.626;2023-05-10T05:28:20;21.60;89.20
2363;DHT22;64265;51.664;7.626;2023-05-10T05:30:48;21.60;89.10
2363;DHT22;64265;51.664;7.626;2023-05-10T05:33:15;21.60;89.00
2363;DHT22;64265;51.664;7.626;2023-05-10T05:35:42;21.60;88.90
2363;DHT22;64265;51.664;7.626;2023-05-10T05:38:12;21.70;89.00
2363;DHT22;64265;51.664;7.626;2023-05-10T05:40:39;21.60;88.80
2363;DHT22;64265;51.664;7.626;2023-05-10T05:43:06;21.70;88.90
2363;DHT22;64265;51.664;7.626;2023-05-10T05:45:32;21.70;88.80
2363;DHT22;64265;51.664;7.626;2023-05-10T05:48:01;21.70;88.80
2363;DHT22;64265;51.664;7.626;2023-05-10T05:50:27;21.70;88.80
2363;DHT22;64265;51.664;7.626;2023-05-10T05:52:54;21.70;88.80
2363;DHT22;64265;51.664;7.626;2023-05-10T05:55:21;21.70;88.70
2363;DHT22;64265;51.664;7.626;2023-05-10T05:57:49;21.70;88.70
2363;DHT22;64265;51.664;7.626;2023-05-10T06:00:16;21.70;88.70
2363;DHT22;64265;51.664;7.626;2023-05-10T06:02:43;21.70;88.70
2363;DHT22;64265;51.664;7.626;2023-05-10T06:05:11;21.70;88.50
2363;DHT22;64265;51.664;7.626;2023-05-10T06:07:39;21.70;88.50
2363;DHT22;64265;51.664;7.626;2023-05-10T06:10:07;21.80;88.50
2363;DHT22;64265;51.664;7.626;2023-05-10T06:12:34;21.80;88.50
2363;DHT22;64265;51.664;7.626;2023-05-10T06:15:01;21.80;88.40
2363;DHT22;64265;51.664;7.626;2023-05-10T06:17:28;21.80;88.40
2363;DHT22;64265;51.664;7.626;2023-05-10T06:19:55;21.80;88.30
2363;DHT22;64265;51.664;7.626;2023-05-10T06:22:23;21.90;88.30
2363;DHT22;64265;51.664;7.626;2023-05-10T06:24:50;21.80;88.20
2363;DHT22;64265;51.664;7.626;2023-05-10T06:27:16;21.90;88.30
2363;DHT22;64265;51.664;7.626;2023-05-10T06:29:43;21.90;88.20
2363;DHT22;64265;51.664;7.626;2023-05-10T06:32:10;21.90;88.10
2363;DHT22;64265;51.664;7.626;2023-05-10T06:34:37;21.90;88.10
2363;DHT22;64265;51.664;7.626;2023-05-10T06:37:03;21.90;88.00
2363;DHT22;64265;51.664;7.626;2023-05-10T06:39:32;21.90;87.90
2363;DHT22;64265;51.664;7.626;2023-05-10T06:41:59;21.90;87.90
2363;DHT22;64265;51.664;7.626;2023-05-10T06:44:27;22.00;88.00
2363;DHT22;64265;51.664;7.626;2023-05-10T06:46:53;22.00;87.90
2363;DHT22;64265;51.664;7.626;2023-05-10T06:49:21;21.90;87.80
2363;DHT22;64265;51.664;7.626;2023-05-10T06:51:47;21.90;87.70
2363;DHT22;64265;51.664;7.626;2023-05-10T06:54:14;22.00;87.90
2363;DHT22;64265;51.664;7.626;2023-05-10T06:56:42;22.00;87.80
2363;DHT22;64265;51.664;7.626;2023-05-10T06:59:09;22.00;87.80
2363;DHT22;64265;51.664;7.626;2023-05-10T07:01:36;21.90;87.60
2363;DHT22;64265;51.664;7.626;2023-05-10T07:04:03;21.90;87.60
2363;DHT22;64265;51.664;7.626;2023-05-10T07:06:29;21.90;87.60
2363;DHT22;64265;51.664;7.626;2023-05-10T07:08:56;21.90;87.60
2363;DHT22;64265;51.664;7.626;2023-05-10T07:11:23;21.90;87.60
2363;DHT22;64265;51.664;7.626;2023-05-10T07:13:51;22.00;87.60
2363;DHT22;64265;51.664;7.626;2023-05-10T07:16:18;22.00;87.60
2363;DHT22;64265;51.664;7.626;2023-05-10T07:18:45;22.00;88.50
2363;DHT22;64265;51.664;7.626;2023-05-10T07:21:12;22.00;87.60
2363;DHT22;64265;51.664;7.626;2023-05-10T07:23:38;22.00;87.50
2363;DHT22;64265;51.664;7.626;2023-05-10T07:26:05;22.00;87.60
2363;DHT22;64265;51.664;7.626;2023-05-10T07:28:32;22.00;89.10
2363;DHT22;64265;51.664;7.626;2023-05-10T07:31:00;22.00;90.20
2363;DHT22;64265;51.664;7.626;2023-05-10T07:33:27;22.00;90.20
2363;DHT22;64265;51.664;7.626;2023-05-10T07:35:53;22.00;90.20
2363;DHT22;64265;51.664;7.626;2023-05-10T07:38:22;21.90;90.00
2363;DHT22;64265;51.664;7.626;2023-05-10T07:40:48;22.00;90.30
2363;DHT22;64265;51.664;7.626;2023-05-10T07:43:15;22.00;90.20
2363;DHT22;64265;51.664;7.626;2023-05-10T07:45:42;22.00;90.20
2363;DHT22;64265;51.664;7.626;2023-05-10T07:48:10;21.90;90.20
2363;DHT22;64265;51.664;7.626;2023-05-10T07:50:37;21.90;90.20
2363;DHT22;64265;51.664;7.626;2023-05-10T07:53:03;21.90;90.30
2363;DHT22;64265;51.664;7.626;2023-05-10T07:55:30;21.80;90.30
2363;DHT22;64265;51.664;7.626;2023-05-10T07:57:57;21.80;90.20
2363;DHT22;64265;51.664;7.626;2023-05-10T08:00:26;21.80;90.20
2363;DHT22;64265;51.664;7.626;2023-05-10T08:02:53;21.80;90.20
2363;DHT22;64265;51.664;7.626;2023-05-10T08:05:21;21.80;90.20
2363;DHT22;64265;51.664;7.626;2023-05-10T08:07:48;21.90;90.20
2363;DHT22;64265;51.664;7.626;2023-05-10T08:10:15;21.80;90.10
2363;DHT22;64265;51.664;7.626;2023-05-10T08:12:42;21.90;90.10
2363;DHT22;64265;51.664;7.626;2023-05-10T08:15:09;21.90;90.10
2363;DHT22;64265;51.664;7.626;2023-05-10T08:17:36;21.90;90.00
2363;DHT22;64265;51.664;7.626;2023-05-10T08:20:04;21.90;90.00
2363;DHT22;64265;51.664;7.626;2023-05-10T08:22:32;21.90;89.90
2363;DHT22;64265;51.664;7.626;2023-05-10T08:25:01;21.90;89.80
2363;DHT22;64265;51.664;7.626;2023-05-10T08:27:28;22.00;89.90
2363;DHT22;64265;51.664;7.626;2023-05-10T08:29:54;22.00;89.80
2363;DHT22;64265;51.664;7.626;2023-05-10T08:32:21;22.00;89.80
2363;DHT22;64265;51.664;7.626;2023-05-10T08:34:48;22.00;89.70
2363;DHT22;64265;51.664;7.626;2023-05-10T08:37:14;22.00;89.60
2363;DHT22;64265;51.664;7.626;2023-05-10T08:39:43;22.00;89.60
2363;DHT22;64265;51.664;7.626;2023-05-10T08:42:11;22.00;89.50
2363;DHT22;64265;51.664;7.626;2023-05-10T08:44:39;22.00;89.50
2363;DHT22;64265;51.664;7.626;2023-05-10T08:47:06;22.00;89.40
2363;DHT22;64265;51.664;7.626;2023-05-10T08:49:33;22.00;89.30
2363;DHT22;64265;51.664;7.626;2023-05-10T08:52:03;22.10;89.40
2363;DHT22;64265;51.664;7.626;2023-05-10T08:54:31;22.00;89.20
2363;DHT22;64265;51.664;7.626;2023-05-10T08:56:59;22.10;89.30
2363;DHT22;64265;51.664;7.626;2023-05-10T08:59:27;22.00;89.20
2363;DHT22;64265;51.664;7.626;2023-05-10T09:01:56;22.00;89.10
2363;DHT22;64265;51.664;7.626;2023-05-10T09:04:24;22.10;89.20
2363;DHT22;64265;51.664;7.626;2023-05-10T09:06:51;22.10;89.20
2363;DHT22;64265;51.664;7.626;2023-05-10T09:09:18;22.10;89.10
2363;DHT22;64265;51.664;7.626;2023-05-10T09:11:46;22.10;89.10
2363;DHT22;64265;51.664;7.626;2023-05-10T09:14:15;22.00;89.00
2363;DHT22;64265;51.664;7.626;2023-05-10T09:16:42;22.10;89.10
2363;DHT22;64265;51.664;7.626;2023-05-10T09:19:09;22.00;88.90
2363;DHT22;64265;51.664;7.626;2023-05-10T09:21:36;22.10;89.00
2363;DHT22;64265;51.664;7.626;2023-05-10T09:24:04;22.10;89.00
2363;DHT22;64265;51.664;7.626;2023-05-10T09:26:31;22.10;89.00
2363;DHT22;64265;51.664;7.626;2023-05-10T09:28:59;22.10;88.90
2363;DHT22;64265;51.664;7.626;2023-05-10T09:31:44;22.10;88.90
2363;DHT22;64265;51.664;7.626;2023-05-10T09:34:15;22.10;89.10
2363;DHT22;64265;51.664;7.626;2023-05-10T09:36:54;22.10;89.10
2363;DHT22;64265;51.664;7.626;2023-05-10T09:39:30;22.10;89.40
2363;DHT22;64265;51.664;7.626;2023-05-10T09:41:57;22.00;89.80
2363;DHT22;64265;51.664;7.626;2023-05-10T09:44:25;22.00;90.20
2363;DHT22;64265;51.664;7.626;2023-05-10T09:46:53;22.10;90.70
2363;DHT22;64265;51.664;7.626;2023-05-10T09:49:24;22.00;90.40
2363;DHT22;64265;51.664;7.626;2023-05-10T09:52:00;22.00;90.50
2363;DHT22;64265;51.664;7.626;2023-05-10T09:54:28;22.10;90.50
2363;DHT22;64265;51.664;7.626;2023-05-10T09:56:55;22.20;90.60
2363;DHT22;64265;51.664;7.626;2023-05-10T09:59:21;22.20;90.50
2363;DHT22;64265;51.664;7.626;2023-05-10T10:01:52;22.20;90.50
2363;DHT22;64265;51.664;7.626;2023-05-10T10:04:22;22.20;90.40
2363;DHT22;64265;51.664;7.626;2023-05-10T10:06:59;22.20;90.60
2363;DHT22;64265;51.664;7.626;2023-05-10T10:09:27;22.20;90.40
2363;DHT22;64265;51.664;7.626;2023-05-10T10:11:54;22.30;90.40
2363;DHT22;64265;51.664;7.626;2023-05-10T10:14:22;22.40;90.50
2363;DHT22;64265;51.664;7.626;2023-05-10T10:16:49;22.40;90.40
2363;DHT22;64265;51.664;7.626;2023-05-10T10:19:16;22.40;90.40
2363;DHT22;64265;51.664;7.626;2023-05-10T10:21:44;22.40;90.40
2363;DHT22;64265;51.664;7.626;2023-05-10T10:24:11;22.40;90.60
2363;DHT22;64265;51.664;7.626;2023-05-10T10:26:39;22.40;90.60
2363;DHT22;64265;51.664;7.626;2023-05-10T10:29:14;22.40;90.60
2363;DHT22;64265;51.664;7.626;2023-05-10T10:31:47;22.50;90.60
2363;DHT22;64265;51.664;7.626;2023-05-10T10:34:25;22.50;90.60
2363;DHT22;64265;51.664;7.626;2023-05-10T10:36:55;22.60;90.60
2363;DHT22;64265;51.664;7.626;2023-05-10T10:39:24;22.60;90.50
2363;DHT22;64265;51.664;7.626;2023-05-10T10:41:53;22.60;90.50
2363;DHT22;64265;51.664;7.626;2023-05-10T10:44:34;22.70;90.40
2363;DHT22;64265;51.664;7.626;2023-05-10T10:47:22;22.70;90.30
2363;DHT22;64265;51.664;7.626;2023-05-10T10:50:05;22.70;90.20
2363;DHT22;64265;51.664;7.626;2023-05-10T10:52:35;22.80;90.30
2363;DHT22;64265;51.664;7.626;2023-05-10T10:55:04;22.80;90.20
2363;DHT22;64265;51.664;7.626;2023-05-10T10:57:33;22.80;90.10
2363;DHT22;64265;51.664;7.626;2023-05-10T11:00:33;22.80;90.10
2363;DHT22;64265;51.664;7.626;2023-05-10T11:03:03;22.90;90.00
2363;DHT22;64265;51.664;7.626;2023-05-10T11:05:41;22.90;90.00
2363;DHT22;64265;51.664;7.626;2023-05-10T11:08:18;22.90;90.00
2363;DHT22;64265;51.664;7.626;2023-05-10T11:11:09;22.90;89.90
2363;DHT22;64265;51.664;7.626;2023-05-10T11:13:41;23.10;89.80
2363;DHT22;64265;51.664;7.626;2023-05-10T11:16:15;23.10;89.50
2363;DHT22;64265;51.664;7.626;2023-05-10T11:18:53;23.10;89.60
2363;DHT22;64265;51.664;7.626;2023-05-10T11:21:20;23.00;89.30
2363;DHT22;64265;51.664;7.626;2023-05-10T11:23:53;23.10;89.50
2363;DHT22;64265;51.664;7.626;2023-05-10T11:26:22;23.10;89.40
2363;DHT22;64265;51.664;7.626;2023-05-10T11:28:52;23.10;89.40
2363;DHT22;64265;51.664;7.626;2023-05-10T11:31:20;23.10;89.30
2363;DHT22;64265;51.664;7.626;2023-05-10T11:33:49;23.10;89.30
2363;DHT22;64265;51.664;7.626;2023-05-10T11:36:18;23.10;89.30
2363;DHT22;64265;51.664;7.626;2023-05-10T11:38:45;23.10;89.10
2363;DHT22;64265;51.664;7.626;2023-05-10T11:41:15;23.10;89.10
2363;DHT22;64265;51.664;7.626;2023-05-10T11:43:42;23.10;89.00
2363;DHT22;64265;51.664;7.626;2023-05-10T11:46:10;23.10;88.90
2363;DHT22;64265;51.664;7.626;2023-05-10T11:48:38;23.10;89.00
2363;DHT22;64265;51.664;7.626;2023-05-10T11:51:06;23.20;88.90
2363;DHT22;64265;51.664;7.626;2023-05-10T11:53:33;23.20;88.90
2363;DHT22;64265;51.664;7.626;2023-05-10T11:56:03;23.20;88.80
2363;DHT22;64265;51.664;7.626;2023-05-10T11:58:32;23.20;88.70
2363;DHT22;64265;51.664;7.626;2023-05-10T12:00:59;23.20;88.70
2363;DHT22;64265;51.664;7.626;2023-05-10T12:03:26;23.20;88.70
2363;DHT22;64265;51.664;7.626;2023-05-10T12:05:54;23.20;88.50
2363;DHT22;64265;51.664;7.626;2023-05-10T12:08:22;23.20;88.60
2363;DHT22;64265;51.664;7.626;2023-05-10T12:10:49;23.20;89.20
2363;DHT22;64265;51.664;7.626;2023-05-10T12:13:16;23.20;88.40
2363;DHT22;64265;51.664;7.626;2023-05-10T12:15:45;23.20;88.30
2363;DHT22;64265;51.664;7.626;2023-05-10T12:18:12;23.20;88.20
2363;DHT22;64265;51.664;7.626;2023-05-10T12:20:40;23.20;88.20
2363;DHT22;64265;51.664;7.626;2023-05-10T12:23:09;23.20;88.10
2363;DHT22;64265;51.664;7.626;2023-05-10T12:25:37;23.30;88.30
2363;DHT22;64265;51.664;7.626;2023-05-10T12:28:05;23.30;88.20
2363;DHT22;64265;51.664;7.626;2023-05-10T12:30:33;23.30;88.30
2363;DHT22;64265;51.664;7.626;2023-05-10T12:33:03;23.30;88.10
2363;DHT22;64265;51.664;7.626;2023-05-10T12:35:33;23.30;87.90
2363;DHT22;64265;51.664;7.626;2023-05-10T12:38:24;23.30;88.10
2363;DHT22;64265;51.664;7.626;2023-05-10T12:40:51;23.30;87.80
2363;DHT22;64265;51.664;7.626;2023-05-10T12:43:18;23.30;87.80
2363;DHT22;64265;51.664;7.626;2023-05-10T12:45:44;23.30;87.60
2363;DHT22;64265;51.664;7.626;2023-05-10T12:48:14;23.30;87.30
2363;DHT22;64265;51.664;7.626;2023-05-10T12:50:43;23.20;87.40
2363;DHT22;64265;51.664;7.626;2023-05-10T12:53:09;23.20;87.40
2363;DHT22;64265;51.664;7.626;2023-05-10T12:55:36;23.30;87.50
2363;DHT22;64265;51.664;7.626;2023-05-10T12:58:03;23.30;87.60
2363;DHT22;64265;51.664;7.626;2023-05-10T13:00:29;23.30;87.40
2363;DHT22;64265;51.664;7.626;2023-05-10T13:02:56;23.30;87.40
2363;DHT22;64265;51.664;7.626;2023-05-10T13:05:24;23.30;87.30
2363;DHT22;64265;51.664;7.626;2023-05-10T13:07:51;23.30;87.20
2363;DHT22;64265;51.664;7.626;2023-05-10T13:10:18;23.30;86.90
2363;DHT22;64265;51.664;7.626;2023-05-10T13:12:44;23.30;86.80
2363;DHT22;64265;51.664;7.626;2023-05-10T13:15:11;23.30;86.70
2363;DHT22;64265;51.664;7.626;2023-05-10T13:17:38;23.20;86.30
2363;DHT22;64265;51.664;7.626;2023-05-10T13:20:06;23.20;86.40
2363;DHT22;64265;51.664;7.626;2023-05-10T13:22:35;23.20;86.40
2363;DHT22;64265;51.664;7.626;2023-05-10T13:25:02;23.20;86.40
2363;DHT22;64265;51.664;7.626;2023-05-10T13:27:28;23.20;86.50
2363;DHT22;64265;51.664;7.626;2023-05-10T13:29:55;23.20;86.50
2363;DHT22;64265;51.664;7.626;2023-05-10T13:32:22;23.20;86.50
2363;DHT22;64265;51.664;7.626;2023-05-10T13:34:49;23.10;86.30
2363;DHT22;64265;51.664;7.626;2023-05-10T13:37:16;23.10;86.50
2363;DHT22;64265;51.664;7.626;2023-05-10T13:39:44;23.10;86.40
2363;DHT22;64265;51.664;7.626;2023-05-10T13:42:10;23.10;86.40
2363;DHT22;64265;51.664;7.626;2023-05-10T13:44:37;23.10;86.40
2363;DHT22;64265;51.664;7.626;2023-05-10T13:47:04;23.10;86.40
2363;DHT22;64265;51.664;7.626;2023-05-10T13:49:31;23.10;86.40
2363;DHT22;64265;51.664;7.626;2023-05-10T13:51:59;23.10;86.50
2363;DHT22;64265;51.664;7.626;2023-05-10T13:54:31;23.10;86.40
2363;DHT22;64265;51.664;7.626;2023-05-10T13:56:59;23.10;86.30
2363;DHT22;64265;51.664;7.626;2023-05-10T13:59:26;23.10;86.40
2363;DHT22;64265;51.664;7.626;2023-05-10T14:01:52;23.10;86.40
2363;DHT22;64265;51.664;7.626;2023-05-10T14:04:19;23.10;86.40
2363;DHT22;64265;51.664;7.626;2023-05-10T14:06:46;23.10;86.40
2363;DHT22;64265;51.664;7.626;2023-05-10T14:09:12;23.10;86.40
2363;DHT22;64265;51.664;7.626;2023-05-10T14:11:39;23.10;86.40
2363;DHT22;64265;51.664;7.626;2023-05-10T14:14:09;23.10;86.40
2363;DHT22;64265;51.664;7.626;2023-05-10T14:16:36;23.00;86.30
2363;DHT22;64265;51.664;7.626;2023-05-10T14:19:03;23.00;86.30
2363;DHT22;64265;51.664;7.626;2023-05-10T14:21:30;23.00;86.30
2363;DHT22;64265;51.664;7.626;2023-05-10T14:23:56;23.00;86.30
2363;DHT22;64265;51.664;7.626;2023-05-10T14:26:23;23.00;86.40
2363;DHT22;64265;51.664;7.626;2023-05-10T14:28:51;23.00;86.30
2363;DHT22;64265;51.664;7.626;2023-05-10T14:31:19;23.00;87.10
2363;DHT22;64265;51.664;7.626;2023-05-10T14:33:46;23.00;86.30
2363;DHT22;64265;51.664;7.626;2023-05-10T14:36:13;23.00;86.40
2363;DHT22;64265;51.664;7.626;2023-05-10T14:38:40;23.00;86.40
2363;DHT22;64265;51.664;7.626;2023-05-10T14:41:06;22.90;86.30
2363;DHT22;64265;51.664;7.626;2023-05-10T14:43:33;22.90;86.40
2363;DHT22;64265;51.664;7.626;2023-05-10T14:46:06;23.00;86.40
2363;DHT22;64265;51.664;7.626;2023-05-10T14:48:34;22.90;86.50
2363;DHT22;64265;51.664;7.626;2023-05-10T14:51:00;23.00;86.50
2363;DHT22;64265;51.664;7.626;2023-05-10T14:53:27;23.00;86.60
2363;DHT22;64265;51.664;7.626;2023-05-10T14:55:54;23.00;86.60
2363;DHT22;64265;51.664;7.626;2023-05-10T14:58:20;23.00;86.70
2363;DHT22;64265;51.664;7.626;2023-05-10T15:00:47;23.00;86.70
2363;DHT22;64265;51.664;7.626;2023-05-10T15:03:14;23.00;86.70
2363;DHT22;64265;51.664;7.626;2023-05-10T15:05:42;23.10;86.90
2363;DHT22;64265;51.664;7.626;2023-05-10T15:08:08;23.10;86.90
2363;DHT22;64265;51.664;7.626;2023-05-10T15:10:36;23.10;86.90
2363;DHT22;64265;51.664;7.626;2023-05-10T15:13:03;23.10;86.90
2363;DHT22;64265;51.664;7.626;2023-05-10T15:15:30;23.10;87.00
2363;DHT22;64265;51.664;7.626;2023-05-10T15:17:57;23.10;86.90
2363;DHT22;64265;51.664;7.626;2023-05-10T15:20:24;23.10;87.00
2363;DHT22;64265;51.664;7.626;2023-05-10T15:22:53;23.20;87.00
2363;DHT22;64265;51.664;7.626;2023-05-10T15:25:20;23.20;87.00
2363;DHT22;64265;51.664;7.626;2023-05-10T15:27:46;23.20;86.90
2363;DHT22;64265;51.664;7.626;2023-05-10T15:30:13;23.20;86.80
2363;DHT22;64265;51.664;7.626;2023-05-10T15:32:40;23.20;86.80
2363;DHT22;64265;51.664;7.626;2023-05-10T15:35:08;23.20;86.80
2363;DHT22;64265;51.664;7.626;2023-05-10T15:37:35;23.30;86.80
2363;DHT22;64265;51.664;7.626;2023-05-10T15:40:04;23.30;86.80
2363;DHT22;64265;51.664;7.626;2023-05-10T15:42:32;23.30;86.80
2363;DHT22;64265;51.664;7.626;2023-05-10T15:44:58;23.30;86.70
2363;DHT22;64265;51.664;7.626;2023-05-10T15:47:26;23.30;86.70
2363;DHT22;64265;51.664;7.626;2023-05-10T15:49:53;23.30;86.60
2363;DHT22;64265;51.664;7.626;2023-05-10T15:52:20;23.30;86.60